createdAt,value
2019-05-06T00:00:34.166Z,73.5229
2019-05-06T00:02:54.469Z,73.7305
2019-05-06T00:05:14.387Z,74.0417
2019-05-06T00:07:34.034Z,74.1455
2019-05-06T00:09:53.866Z,74.2493
2019-05-06T00:12:14.367Z,74.2493
2019-05-06T00:14:33.956Z,74.5300
2019-05-06T00:16:54.581Z,74.5300
2019-05-06T00:19:13.965Z,74.7375
2019-05-06T00:21:32.434Z,74.7375
2019-05-06T00:23:51.581Z,75.0488
2019-05-06T00:26:10.718Z,74.9451
2019-05-06T00:28:29.127Z,75.0122
2019-05-06T00:30:48.368Z,74.9084
2019-05-06T00:33:08.547Z,75.2197
2019-05-06T00:35:27.792Z,75.4272
2019-05-06T00:37:46.952Z,75.5371
2019-05-06T00:40:06.395Z,75.6409
2019-05-06T00:42:25.604Z,75.7446
2019-05-06T00:44:44.919Z,75.7446
2019-05-06T00:47:04.410Z,75.9521
2019-05-06T00:49:23.915Z,76.2634
2019-05-06T00:51:43.995Z,76.4709
2019-05-06T00:54:04.040Z,76.4709
2019-05-06T00:56:24.336Z,76.6785
2019-05-06T00:58:43.659Z,77.3376
2019-05-06T01:01:04.579Z,77.4048
2019-05-06T01:03:24.107Z,77.3010
2019-05-06T01:05:44.371Z,77.0935
2019-05-06T01:08:04.075Z,76.6785
2019-05-06T01:10:23.829Z,76.2634
2019-05-06T01:12:43.508Z,75.7446
2019-05-06T01:15:03.830Z,75.5371
2019-05-06T01:17:24.355Z,75.4272
2019-05-06T01:19:45.708Z,75.2197
2019-05-06T01:22:05.375Z,75.0122
2019-05-06T01:24:24.103Z,75.0122
2019-05-06T01:26:44.336Z,74.9084
2019-05-06T01:29:03.981Z,75.4639
2019-05-06T01:31:24.713Z,75.5676
2019-05-06T01:33:45.505Z,75.5676
2019-05-06T01:36:04.554Z,75.3601
2019-05-06T01:38:24.215Z,75.4639
2019-05-06T01:40:44.049Z,75.3601
2019-05-06T01:43:03.619Z,75.3601
2019-05-06T01:45:23.665Z,75.2197
2019-05-06T01:47:43.792Z,75.2563
2019-05-06T01:50:04.480Z,75.3601
2019-05-06T01:52:24.165Z,75.3601
2019-05-06T01:54:43.475Z,75.5676
2019-05-06T01:57:04.426Z,75.6714
2019-05-06T01:59:24.620Z,75.5676
2019-05-06T02:01:57.015Z,75.5676
2019-05-06T02:04:07.386Z,75.4272
2019-05-06T02:06:26.708Z,75.3235
2019-05-06T02:08:45.471Z,75.1160
2019-05-06T02:11:04.840Z,74.9084
2019-05-06T02:13:24.371Z,74.5972
2019-05-06T02:15:44.938Z,74.5300
2019-05-06T02:18:04.346Z,74.1089
2019-05-06T02:20:24.606Z,73.9014
2019-05-06T02:22:44.267Z,73.6938
2019-05-06T02:25:04.444Z,73.5901
2019-05-06T02:27:24.775Z,73.7976
2019-05-06T02:29:44.302Z,74.0417
2019-05-06T02:32:17.148Z,74.2493
2019-05-06T02:34:26.834Z,74.6643
2019-05-06T02:36:45.891Z,74.7681
2019-05-06T02:39:05.283Z,74.7681
2019-05-06T02:41:24.730Z,74.6643
2019-05-06T02:43:44.100Z,74.6643
2019-05-06T02:46:04.204Z,74.5605
2019-05-06T02:48:23.617Z,74.5605
2019-05-06T02:50:42.786Z,74.7681
2019-05-06T02:53:02.657Z,74.8718
2019-05-06T02:55:23.573Z,75.1892
2019-05-06T02:57:43.910Z,75.0854
2019-05-06T03:00:05.116Z,74.6643
2019-05-06T03:02:37.977Z,74.5300
2019-05-06T03:04:48.549Z,74.3225
2019-05-06T03:07:07.666Z,74.0051
2019-05-06T03:09:26.461Z,73.7976
2019-05-06T03:11:45.581Z,73.4863
2019-05-06T03:14:04.385Z,72.9675
2019-05-06T03:16:23.951Z,72.4792
2019-05-06T03:18:43.672Z,71.8567
2019-05-06T03:21:03.815Z,71.2280
2019-05-06T03:23:23.921Z,70.6055
2019-05-06T03:25:43.997Z,70.1904
2019-05-06T03:28:04.131Z,69.5618
2019-05-06T03:30:25.467Z,69.1772
2019-05-06T03:33:20.334Z,68.8660
2019-05-06T03:35:27.486Z,68.8660
2019-05-06T03:37:33.661Z,68.9697
2019-05-06T03:39:52.886Z,69.2810
2019-05-06T03:42:15.934Z,69.5923
2019-05-06T03:44:36.204Z,69.8059
2019-05-06T03:46:55.230Z,69.9097
2019-05-06T03:49:14.903Z,70.2209
2019-05-06T03:51:34.612Z,70.3247
2019-05-06T03:53:56.813Z,70.4285
2019-05-06T03:56:19.659Z,70.5322
2019-05-06T03:58:43.286Z,70.7397
2019-05-06T04:01:03.730Z,70.8435
2019-05-06T04:03:42.011Z,71.1609
2019-05-06T04:05:47.474Z,71.3684
2019-05-06T04:08:05.881Z,71.4722
2019-05-06T04:10:25.344Z,71.8872
2019-05-06T04:12:44.823Z,72.1985
2019-05-06T04:15:04.452Z,72.5098
2019-05-06T04:17:23.801Z,72.9980
2019-05-06T04:19:43.676Z,73.3154
2019-05-06T04:22:03.679Z,73.6267
2019-05-06T04:24:23.258Z,73.9014
2019-05-06T04:26:46.045Z,74.1089
2019-05-06T04:29:06.240Z,74.4263
2019-05-06T04:31:25.375Z,74.6338
2019-05-06T04:34:03.536Z,74.9084
2019-05-06T04:36:09.277Z,75.1160
2019-05-06T04:38:27.570Z,75.3235
2019-05-06T04:40:46.931Z,75.4272
2019-05-06T04:43:06.540Z,75.6042
2019-05-06T04:45:25.814Z,75.8118
2019-05-06T04:47:44.265Z,76.0193
2019-05-06T04:50:04.846Z,76.1230
2019-05-06T04:52:26.126Z,76.2939
2019-05-06T04:54:45.466Z,76.5076
2019-05-06T04:57:05.312Z,76.6113
2019-05-06T04:59:24.382Z,76.7822
2019-05-06T05:01:45.513Z,76.9897
2019-05-06T05:04:22.269Z,77.0935
2019-05-06T05:06:29.644Z,77.1973
2019-05-06T05:08:48.729Z,77.1606
2019-05-06T05:11:08.011Z,77.0569
2019-05-06T05:13:27.102Z,77.0569
2019-05-06T05:15:46.610Z,77.2644
2019-05-06T05:18:05.050Z,77.3682
2019-05-06T05:20:37.074Z,77.3682
2019-05-06T05:22:48.686Z,77.3682
2019-05-06T05:25:07.817Z,77.3682
2019-05-06T05:27:26.341Z,77.4719
2019-05-06T05:29:44.758Z,77.4719
2019-05-06T05:32:03.776Z,77.4719
2019-05-06T05:34:36.402Z,77.4719
2019-05-06T05:36:46.355Z,77.4353
2019-05-06T05:39:05.704Z,77.3315
2019-05-06T05:41:24.774Z,77.1973
2019-05-06T05:43:43.175Z,77.0935
2019-05-06T05:46:02.913Z,76.9531
2019-05-06T05:48:23.351Z,76.8494
2019-05-06T05:50:42.558Z,76.6418
2019-05-06T05:53:02.499Z,76.5015
2019-05-06T05:55:22.193Z,76.3977
2019-05-06T05:57:43.103Z,76.5015
2019-05-06T06:00:03.922Z,76.4648
2019-05-06T06:02:23.237Z,76.5686
2019-05-06T06:04:54.210Z,76.5686
2019-05-06T06:07:05.679Z,76.5320
2019-05-06T06:09:25.384Z,76.5320
2019-05-06T06:11:43.990Z,76.2939
2019-05-06T06:14:03.149Z,76.0864
2019-05-06T06:16:23.272Z,76.0498
2019-05-06T06:18:43.102Z,75.7019
2019-05-06T06:21:17.368Z,75.3967
2019-05-06T06:23:26.521Z,75.0488
2019-05-06T06:25:45.500Z,74.6033
2019-05-06T06:28:04.895Z,74.4629
2019-05-06T06:30:24.071Z,74.3286
2019-05-06T06:32:43.141Z,74.1882
2019-05-06T06:35:10.799Z,73.8770
2019-05-06T06:37:28.894Z,73.6389
2019-05-06T06:39:48.661Z,73.5046
2019-05-06T06:42:06.129Z,73.2605
2019-05-06T06:44:26.989Z,73.0225
2019-05-06T06:46:46.030Z,72.2656
2019-05-06T06:49:07.647Z,71.6553
2019-05-06T06:51:26.666Z,71.1731
2019-05-06T06:53:47.769Z,70.6970
2019-05-06T06:56:12.503Z,70.7703
2019-05-06T06:58:33.299Z,71.1487
2019-05-06T07:00:53.347Z,71.4172
2019-05-06T07:03:12.285Z,71.4905
2019-05-06T07:05:33.069Z,71.5271
2019-05-06T07:07:53.125Z,71.4905
2019-05-06T07:10:12.638Z,71.4233
2019-05-06T07:12:32.830Z,71.6980
2019-05-06T07:14:52.474Z,71.9360
2019-05-06T07:17:13.183Z,72.4121
2019-05-06T07:19:32.772Z,72.9919
2019-05-06T07:21:52.370Z,73.5718
2019-05-06T07:24:13.045Z,73.8403
2019-05-06T07:26:31.831Z,73.7061
2019-05-06T07:28:52.698Z,73.6023
2019-05-06T07:31:21.802Z,73.3643
2019-05-06T07:33:36.815Z,72.7173
2019-05-06T07:35:56.458Z,72.7844
2019-05-06T07:40:45.015Z,72.8516
2019-05-06T07:45:32.879Z,72.3816
2019-05-06T07:47:53.194Z,71.8384
2019-05-06T07:50:13.818Z,71.3989
2019-05-06T07:52:32.851Z,70.7581
2019-05-06T07:54:53.609Z,70.6543
2019-05-06T07:57:13.032Z,70.1172
2019-05-06T07:59:33.387Z,70.1172
2019-05-06T08:01:54.083Z,69.6777
2019-05-06T08:04:13.498Z,69.4397
2019-05-06T08:06:32.617Z,69.7449
2019-05-06T08:08:53.766Z,69.3115
2019-05-06T08:11:13.291Z,68.5974
2019-05-06T08:13:32.642Z,68.3960
2019-05-06T08:15:53.042Z,68.8049
2019-05-06T08:18:12.869Z,68.7683
2019-05-06T08:20:34.736Z,68.7378
2019-05-06T08:22:56.294Z,68.3350
2019-05-06T08:25:16.297Z,68.0298
2019-05-06T08:27:37.361Z,68.2312
2019-05-06T08:29:56.743Z,68.2312
2019-05-06T08:34:47.264Z,70.1843
2019-05-06T08:37:07.273Z,71.2341
2019-05-06T08:39:26.995Z,71.5027
2019-05-06T08:44:25.027Z,72.2412
2019-05-06T08:46:43.717Z,74.0356
2019-05-06T08:49:05.414Z,74.6094
2019-05-06T08:51:24.502Z,75.2869
2019-05-06T08:53:46.346Z,75.4272
2019-05-06T08:56:06.069Z,75.5615
2019-05-06T08:58:26.351Z,75.9338
2019-05-06T09:03:14.354Z,76.5686
2019-05-06T09:05:35.045Z,76.5686
2019-05-06T09:07:54.587Z,76.0925
2019-05-06T09:10:14.127Z,75.7202
2019-05-06T09:12:34.884Z,75.8179
2019-05-06T09:14:53.435Z,76.1597
2019-05-06T09:17:12.086Z,76.4648
2019-05-06T09:19:33.187Z,76.9043
2019-05-06T09:21:57.290Z,77.1423
2019-05-06T09:26:52.269Z,77.8992
2019-05-06T09:32:05.032Z,79.6326
2019-05-06T09:34:28.268Z,79.8767
2019-05-06T09:36:52.684Z,79.7729
2019-05-06T09:39:19.284Z,80.1575
2019-05-06T09:41:37.467Z,81.8848
2019-05-06T09:43:56.917Z,81.9885
2019-05-06T09:46:15.965Z,82.2937
2019-05-06T09:48:34.433Z,82.1289
2019-05-06T09:50:53.719Z,82.7393
2019-05-06T09:53:13.763Z,83.0078
2019-05-06T09:58:12.433Z,83.2703
2019-05-06T10:00:32.975Z,83.2336
2019-05-06T10:05:28.576Z,82.9529
2019-05-06T10:07:52.265Z,83.0566
2019-05-06T10:10:11.259Z,82.8125
2019-05-06T10:12:29.696Z,82.6111
2019-05-06T10:17:31.088Z,81.8970
2019-05-06T10:19:50.492Z,82.0007
2019-05-06T10:24:43.177Z,82.1655
2019-05-06T10:27:02.754Z,82.1655
2019-05-06T10:29:27.709Z,82.0984
2019-05-06T10:31:45.389Z,82.0984
2019-05-06T10:34:03.187Z,82.1411
2019-05-06T10:39:02.445Z,82.8491
2019-05-06T10:41:22.413Z,82.8491
2019-05-06T10:43:43.376Z,82.8125
2019-05-06T10:48:42.448Z,82.7087
2019-05-06T10:51:03.379Z,82.7087
2019-05-06T10:53:24.813Z,82.5684
2019-05-06T10:55:43.343Z,82.4707
2019-05-06T11:00:36.294Z,82.3303
2019-05-06T11:05:32.558Z,82.2876
2019-05-06T11:07:52.518Z,82.2510
2019-05-06T11:10:23.890Z,82.0496
2019-05-06T11:12:38.653Z,81.7078
2019-05-06T11:17:34.100Z,81.7078
2019-05-06T11:19:56.361Z,81.1340
2019-05-06T11:22:21.208Z,81.1340
2019-05-06T11:27:28.070Z,80.8044
2019-05-06T11:29:37.918Z,80.6396
2019-05-06T11:31:56.584Z,81.7566
2019-05-06T11:36:45.400Z,82.3425
2019-05-06T11:39:04.363Z,83.2581
2019-05-06T11:41:23.363Z,83.7646
2019-05-06T11:43:43.083Z,83.6670
2019-05-06T11:46:02.595Z,82.7881
2019-05-06T11:50:55.510Z,82.5195
2019-05-06T11:53:13.469Z,83.4351
2019-05-06T11:55:38.050Z,83.5388
2019-05-06T11:57:54.381Z,83.4351
2019-05-06T12:00:12.897Z,83.2947
2019-05-06T12:02:33.021Z,83.3984
2019-05-06T12:04:52.838Z,83.3984
2019-05-06T12:07:15.460Z,83.2947
2019-05-06T12:09:34.604Z,83.9722
2019-05-06T12:11:53.094Z,84.4360
2019-05-06T12:14:12.389Z,84.3567
2019-05-06T12:16:33.169Z,83.8135
2019-05-06T12:18:55.709Z,83.2642
2019-05-06T12:21:19.135Z,82.8613
2019-05-06T12:23:39.005Z,82.0068
2019-05-06T12:25:57.499Z,81.8054
2019-05-06T12:28:21.269Z,81.5002
2019-05-06T12:30:42.709Z,81.7078
2019-05-06T12:33:03.135Z,81.5002
2019-05-06T12:35:22.183Z,82.2144
2019-05-06T12:40:37.239Z,82.1472
2019-05-06T12:42:58.908Z,82.1472
2019-05-06T12:45:17.388Z,81.3782
2019-05-06T13:12:48.929Z,82.0251
2019-05-06T13:15:08.144Z,82.1289
2019-05-06T13:28:57.663Z,82.6111
2019-05-06T13:38:08.477Z,81.5918
2019-05-06T13:47:19.134Z,82.7515
2019-05-06T13:49:37.625Z,82.6538
2019-05-06T14:07:57.798Z,81.3538
2019-05-06T14:44:39.139Z,80.7251
2019-05-06T14:46:57.622Z,81.0364
2019-05-06T15:21:36.184Z,78.6011
2019-05-06T15:39:49.409Z,81.1340
2019-05-06T15:45:57.615Z,80.8655
2019-05-06T15:54:08.936Z,79.6204
2019-05-06T16:00:38.107Z,80.5115
2019-05-06T16:08:48.578Z,79.7668
2019-05-06T16:21:07.430Z,80.7983
2019-05-06T16:33:27.601Z,80.9387
2019-05-06T16:49:47.799Z,81.1462
2019-05-06T16:57:58.382Z,80.9387
2019-05-06T17:02:18.786Z,80.4626
2019-05-06T18:30:15.903Z,80.3650
2019-05-06T18:51:50.978Z,80.2307
2019-05-06T19:04:08.095Z,79.8218
2019-05-06T19:24:39.135Z,79.5471
2019-05-06T19:41:28.256Z,79.1748
2019-05-06T19:51:48.874Z,78.6926
2019-05-06T20:02:09.562Z,78.8696
2019-05-06T20:23:48.593Z,78.6316
2019-05-06T20:44:29.257Z,77.7710
2019-05-06T21:00:52.786Z,76.7761
2019-05-06T21:17:29.060Z,73.9807
2019-05-06T21:19:33.124Z,73.7732
2019-05-06T21:24:15.331Z,73.4924
2019-05-06T21:41:25.536Z,72.7356
2019-05-06T21:55:45.859Z,73.2544
2019-05-06T22:12:05.777Z,73.3582
2019-05-06T22:26:35.026Z,72.5281
2019-05-06T22:42:55.831Z,73.0774
2019-05-06T23:07:45.012Z,72.2107
2019-05-06T23:20:05.141Z,72.1375
2019-05-06T23:28:16.362Z,70.9229
